sensor_id;sensor_type;location;lat;lon;timestamp;pressure;altitude;pressure_sealevel;temperature;humidity
8061;BME280;4073;42.626;25.386;2023-04-07T00:00:56;96900.06;;;7.41;67.20
8061;BME280;4073;42.626;25.386;2023-04-07T00:03:21;96901.09;;;7.40;67.44
8061;BME280;4073;42.626;25.386;2023-04-07T00:05:47;96897.63;;;7.35;68.60
8061;BME280;4073;42.626;25.386;2023-04-07T00:08:13;96901.59;;;7.32;67.62
8061;BME280;4073;42.626;25.386;2023-04-07T00:10:38;96899.19;;;7.31;67.52
8061;BME280;4073;42.626;25.386;2023-04-07T00:13:04;96893.88;;;7.26;67.15
8061;BME280;4073;42.626;25.386;2023-04-07T00:15:29;96890.66;;;7.24;66.97
8061;BME280;4073;42.626;25.386;2023-04-07T00:17:55;96896.53;;;7.26;67.35
8061;BME280;4073;42.626;25.386;2023-04-07T00:20:20;96893.31;;;7.24;66.62
8061;BME280;4073;42.626;25.386;2023-04-07T00:22:46;96897.06;;;7.28;66.67
8061;BME280;4073;42.626;25.386;2023-04-07T00:25:12;96892.44;;;7.13;66.71
8061;BME280;4073;42.626;25.386;2023-04-07T00:27:37;96887.94;;;7.14;67.08
8061;BME280;4073;42.626;25.386;2023-04-07T00:30:03;96887.41;;;7.17;65.04
8061;BME280;4073;42.626;25.386;2023-04-07T00:32:28;96890.31;;;7.15;64.80
8061;BME280;4073;42.626;25.386;2023-04-07T00:34:54;96886.84;;;7.15;65.29
8061;BME280;4073;42.626;25.386;2023-04-07T00:37:19;96890.06;;;7.17;65.05
8061;BME280;4073;42.626;25.386;2023-04-07T00:39:45;96894.31;;;7.13;63.99
8061;BME280;4073;42.626;25.386;2023-04-07T00:42:11;96892.16;;;7.10;64.93
8061;BME280;4073;42.626;25.386;2023-04-07T00:44:36;96900.63;;;7.07;65.13
8061;BME280;4073;42.626;25.386;2023-04-07T00:47:02;96893.47;;;7.07;65.19
8061;BME280;4073;42.626;25.386;2023-04-07T00:49:28;96900.38;;;7.03;65.82
8061;BME280;4073;42.626;25.386;2023-04-07T00:51:54;96898.28;;;7.10;66.67
8061;BME280;4073;42.626;25.386;2023-04-07T00:54:22;96889.19;;;7.06;67.44
8061;BME280;4073;42.626;25.386;2023-04-07T00:56:47;96895.66;;;7.15;68.07
8061;BME280;4073;42.626;25.386;2023-04-07T00:59:13;96898.06;;;7.17;67.90
8061;BME280;4073;42.626;25.386;2023-04-07T01:02:09;96894.38;;;7.23;67.89
8061;BME280;4073;42.626;25.386;2023-04-07T01:04:43;96899.19;;;7.26;68.54
8061;BME280;4073;42.626;25.386;2023-04-07T01:07:33;96899.19;;;7.26;68.56
8061;BME280;4073;42.626;25.386;2023-04-07T01:10:09;96884.25;;;7.20;67.77
8061;BME280;4073;42.626;25.386;2023-04-07T01:12:56;96894.94;;;7.30;67.43
8061;BME280;4073;42.626;25.386;2023-04-07T01:15:26;96897.06;;;7.28;67.68
8061;BME280;4073;42.626;25.386;2023-04-07T01:18:05;96893.59;;;7.27;67.64
8061;BME280;4073;42.626;25.386;2023-04-07T01:20:32;96892.78;;;7.27;65.90
8061;BME280;4073;42.626;25.386;2023-04-07T01:23:04;96888.28;;;7.27;65.40
8061;BME280;4073;42.626;25.386;2023-04-07T01:31:09;96892.53;;;7.28;64.84
8061;BME280;4073;42.626;25.386;2023-04-07T01:33:37;96900.22;;;7.25;65.44
8061;BME280;4073;42.626;25.386;2023-04-07T01:36:05;96894.88;;;7.20;63.67
8061;BME280;4073;42.626;25.386;2023-04-07T01:38:32;96898.56;;;7.14;63.47
8061;BME280;4073;42.626;25.386;2023-04-07T01:40:58;96895.56;;;7.05;61.70
8061;BME280;4073;42.626;25.386;2023-04-07T01:43:25;96889.94;;;6.97;63.12
8061;BME280;4073;42.626;25.386;2023-04-07T01:45:53;96897.09;;;6.96;63.95
8061;BME280;4073;42.626;25.386;2023-04-07T01:48:19;96896.59;;;6.99;64.09
8061;BME280;4073;42.626;25.386;2023-04-07T01:50:46;96888.88;;;6.98;63.76
8061;BME280;4073;42.626;25.386;2023-04-07T01:53:13;96901.56;;;6.91;64.21
8061;BME280;4073;42.626;25.386;2023-04-07T01:55:40;96894.94;;;6.88;63.93
8061;BME280;4073;42.626;25.386;2023-04-07T01:58:06;96888.78;;;6.83;64.26
8061;BME280;4073;42.626;25.386;2023-04-07T02:00:32;96884.28;;;6.88;64.05
8061;BME280;4073;42.626;25.386;2023-04-07T02:03:04;96886.38;;;6.81;65.34
8061;BME280;4073;42.626;25.386;2023-04-07T02:05:34;96884.22;;;6.78;65.68
8061;BME280;4073;42.626;25.386;2023-04-07T02:08:05;96887.13;;;6.77;65.74
8061;BME280;4073;42.626;25.386;2023-04-07T02:10:34;96894.50;;;6.70;66.34
8061;BME280;4073;42.626;25.386;2023-04-07T02:13:04;96896.63;;;6.68;66.37
8061;BME280;4073;42.626;25.386;2023-04-07T02:15:30;96887.53;;;6.64;65.33
8061;BME280;4073;42.626;25.386;2023-04-07T02:17:58;96889.41;;;6.63;65.66
8061;BME280;4073;42.626;25.386;2023-04-07T02:20:24;96878.50;;;6.60;64.94
8061;BME280;4073;42.626;25.386;2023-04-07T02:22:51;96894.44;;;6.60;65.46
8061;BME280;4073;42.626;25.386;2023-04-07T02:25:31;96898.66;;;6.56;65.37
8061;BME280;4073;42.626;25.386;2023-04-07T02:27:58;96889.25;;;6.43;65.63
8061;BME280;4073;42.626;25.386;2023-04-07T02:30:24;96895.44;;;6.54;65.95
8061;BME280;4073;42.626;25.386;2023-04-07T02:32:51;96895.19;;;6.55;65.97
8061;BME280;4073;42.626;25.386;2023-04-07T02:35:16;96894.34;;;6.50;65.68
8061;BME280;4073;42.626;25.386;2023-04-07T02:37:43;96895.19;;;6.55;65.94
8061;BME280;4073;42.626;25.386;2023-04-07T02:40:09;96886.13;;;6.51;66.80
8061;BME280;4073;42.626;25.386;2023-04-07T02:42:34;96897.09;;;6.60;65.55
8061;BME280;4073;42.626;25.386;2023-04-07T02:45:04;96904.78;;;6.56;64.90
8061;BME280;4073;42.626;25.386;2023-04-07T02:47:30;96904.22;;;6.54;65.42
8061;BME280;4073;42.626;25.386;2023-04-07T02:49:56;96904.44;;;6.48;65.27
8061;BME280;4073;42.626;25.386;2023-04-07T02:52:21;96904.69;;;6.46;66.39
8061;BME280;4073;42.626;25.386;2023-04-07T02:54:47;96906.28;;;6.47;66.44
8061;BME280;4073;42.626;25.386;2023-04-07T02:57:12;96901.81;;;6.53;66.61
8061;BME280;4073;42.626;25.386;2023-04-07T02:59:38;96905.28;;;6.53;65.47
8061;BME280;4073;42.626;25.386;2023-04-07T03:02:04;96901.78;;;6.48;65.96
8061;BME280;4073;42.626;25.386;2023-04-07T03:04:30;96902.56;;;6.48;66.07
8061;BME280;4073;42.626;25.386;2023-04-07T03:06:56;96908.38;;;6.45;66.46
8061;BME280;4073;42.626;25.386;2023-04-07T03:09:21;96911.53;;;6.42;66.55
8061;BME280;4073;42.626;25.386;2023-04-07T03:11:47;96918.44;;;6.43;66.93
8061;BME280;4073;42.626;25.386;2023-04-07T03:14:12;96911.28;;;6.44;67.21
8061;BME280;4073;42.626;25.386;2023-04-07T03:16:38;96920.59;;;6.46;67.61
8061;BME280;4073;42.626;25.386;2023-04-07T03:19:03;96914.94;;;6.38;68.36
8061;BME280;4073;42.626;25.386;2023-04-07T03:21:29;96916.78;;;6.37;68.58
8061;BME280;4073;42.626;25.386;2023-04-07T03:23:56;96923.16;;;6.36;68.96
8061;BME280;4073;42.626;25.386;2023-04-07T03:26:21;96917.78;;;6.31;69.70
8061;BME280;4073;42.626;25.386;2023-04-07T03:28:47;96922.31;;;6.31;70.93
8061;BME280;4073;42.626;25.386;2023-04-07T03:31:12;96923.41;;;6.35;71.10
8061;BME280;4073;42.626;25.386;2023-04-07T03:33:37;96930.28;;;6.31;71.75
8061;BME280;4073;42.626;25.386;2023-04-07T03:36:03;96928.53;;;6.20;72.12
8061;BME280;4073;42.626;25.386;2023-04-07T03:38:29;96926.78;;;6.25;72.70
8061;BME280;4073;42.626;25.386;2023-04-07T03:40:54;96925.97;;;6.25;72.23
8061;BME280;4073;42.626;25.386;2023-04-07T03:43:20;96931.78;;;6.22;73.37
8061;BME280;4073;42.626;25.386;2023-04-07T03:45:46;96932.25;;;6.19;73.15
8061;BME280;4073;42.626;25.386;2023-04-07T03:48:11;96939.94;;;6.15;73.48
8061;BME280;4073;42.626;25.386;2023-04-07T03:50:38;96930.66;;;6.18;73.77
8061;BME280;4073;42.626;25.386;2023-04-07T03:53:04;96935.78;;;6.24;72.47
8061;BME280;4073;42.626;25.386;2023-04-07T03:55:30;96929.59;;;6.19;70.88
8061;BME280;4073;42.626;25.386;2023-04-07T03:57:56;96943.00;;;6.29;70.96
8061;BME280;4073;42.626;25.386;2023-04-07T04:00:21;96951.53;;;6.31;68.88
8061;BME280;4073;42.626;25.386;2023-04-07T04:02:47;96949.41;;;6.33;69.21
8061;BME280;4073;42.626;25.386;2023-04-07T04:05:12;96948.00;;;6.25;67.94
8061;BME280;4073;42.626;25.386;2023-04-07T04:07:38;96949.84;;;6.25;67.67
8061;BME280;4073;42.626;25.386;2023-04-07T04:10:03;96951.69;;;6.24;67.17
8061;BME280;4073;42.626;25.386;2023-04-07T04:12:29;96953.56;;;6.24;67.78
8061;BME280;4073;42.626;25.386;2023-04-07T04:14:55;96959.47;;;6.31;68.11
8061;BME280;4073;42.626;25.386;2023-04-07T04:17:20;96964.72;;;6.26;67.08
8061;BME280;4073;42.626;25.386;2023-04-07T04:19:45;96967.19;;;6.32;67.25
8061;BME280;4073;42.626;25.386;2023-04-07T04:22:11;96961.81;;;6.27;67.18
8061;BME280;4073;42.626;25.386;2023-04-07T04:24:36;96964.78;;;6.31;67.13
8061;BME280;4073;42.626;25.386;2023-04-07T04:27:02;96965.88;;;6.35;67.61
8061;BME280;4073;42.626;25.386;2023-04-07T04:29:27;96965.56;;;6.31;67.72
8061;BME280;4073;42.626;25.386;2023-04-07T04:31:53;96966.19;;;6.38;67.79
8061;BME280;4073;42.626;25.386;2023-04-07T04:34:18;96969.91;;;6.37;68.68
8061;BME280;4073;42.626;25.386;2023-04-07T04:36:44;96971.81;;;6.42;67.83
8061;BME280;4073;42.626;25.386;2023-04-07T04:39:10;96963.47;;;6.33;67.95
8061;BME280;4073;42.626;25.386;2023-04-07T04:41:35;96980.06;;;6.45;68.11
8061;BME280;4073;42.626;25.386;2023-04-07T04:44:01;96985.38;;;6.45;68.28
8061;BME280;4073;42.626;25.386;2023-04-07T04:46:26;96990.50;;;6.52;68.63
8061;BME280;4073;42.626;25.386;2023-04-07T04:48:52;96988.19;;;6.60;68.53
8061;BME280;4073;42.626;25.386;2023-04-07T04:51:18;96996.16;;;6.60;69.09
8061;BME280;4073;42.626;25.386;2023-04-07T04:53:44;96994.41;;;6.71;69.39
8061;BME280;4073;42.626;25.386;2023-04-07T04:56:09;96992.31;;;6.73;69.57
8061;BME280;4073;42.626;25.386;2023-04-07T04:58:36;96963.69;;;6.53;69.22
8061;BME280;4073;42.626;25.386;2023-04-07T05:01:01;96995.31;;;6.81;69.89
8061;BME280;4073;42.626;25.386;2023-04-07T05:03:27;96997.22;;;6.86;70.08
8061;BME280;4073;42.626;25.386;2023-04-07T05:05:53;96997.81;;;6.93;70.93
8061;BME280;4073;42.626;25.386;2023-04-07T05:08:18;97007.13;;;6.95;72.82
8061;BME280;4073;42.626;25.386;2023-04-07T05:10:45;97005.81;;;6.98;73.10
8061;BME280;4073;42.626;25.386;2023-04-07T05:13:10;97004.53;;;7.00;73.56
8061;BME280;4073;42.626;25.386;2023-04-07T05:15:36;97006.97;;;7.07;73.41
8061;BME280;4073;42.626;25.386;2023-04-07T05:18:01;97004.66;;;7.15;72.26
8061;BME280;4073;42.626;25.386;2023-04-07T05:20:27;97017.78;;;7.32;70.25
8061;BME280;4073;42.626;25.386;2023-04-07T05:22:52;97011.25;;;7.44;68.59
8061;BME280;4073;42.626;25.386;2023-04-07T05:25:18;97018.50;;;7.54;67.87
8061;BME280;4073;42.626;25.386;2023-04-07T05:27:43;97026.00;;;7.62;67.65
8061;BME280;4073;42.626;25.386;2023-04-07T05:30:09;97024.16;;;7.67;67.25
8061;BME280;4073;42.626;25.386;2023-04-07T05:32:36;97013.59;;;7.77;66.76
8061;BME280;4073;42.626;25.386;2023-04-07T05:35:01;97009.66;;;7.85;65.98
8061;BME280;4073;42.626;25.386;2023-04-07T05:37:27;97021.22;;;8.06;65.18
8061;BME280;4073;42.626;25.386;2023-04-07T05:39:52;97022.84;;;8.17;64.18
8061;BME280;4073;42.626;25.386;2023-04-07T05:42:17;97025.69;;;8.47;65.38
8061;BME280;4073;42.626;25.386;2023-04-07T05:44:43;97028.47;;;8.87;63.12
8061;BME280;4073;42.626;25.386;2023-04-07T05:47:08;97027.97;;;9.25;61.18
8061;BME280;4073;42.626;25.386;2023-04-07T05:49:35;97020.75;;;9.30;58.98
8061;BME280;4073;42.626;25.386;2023-04-07T05:52:01;97030.88;;;9.38;58.59
8061;BME280;4073;42.626;25.386;2023-04-07T05:54:28;97034.06;;;9.25;58.57
8061;BME280;4073;42.626;25.386;2023-04-07T05:56:53;97034.88;;;9.16;58.87
8061;BME280;4073;42.626;25.386;2023-04-07T05:59:20;97037.00;;;9.09;58.97
8061;BME280;4073;42.626;25.386;2023-04-07T06:01:45;97029.81;;;8.99;58.06
8061;BME280;4073;42.626;25.386;2023-04-07T06:04:11;97031.94;;;8.97;57.48
8061;BME280;4073;42.626;25.386;2023-04-07T06:06:36;97032.19;;;8.91;57.77
8061;BME280;4073;42.626;25.386;2023-04-07T06:09:02;97032.44;;;8.89;57.73
8061;BME280;4073;42.626;25.386;2023-04-07T06:11:28;97031.38;;;8.90;56.56
8061;BME280;4073;42.626;25.386;2023-04-07T06:13:53;97007.91;;;8.82;55.71
8061;BME280;4073;42.626;25.386;2023-04-07T06:16:18;97038.88;;;9.13;55.44
8061;BME280;4073;42.626;25.386;2023-04-07T06:18:44;97024.75;;;9.43;54.16
8061;BME280;4073;42.626;25.386;2023-04-07T06:21:10;97039.16;;;9.62;51.63
8061;BME280;4073;42.626;25.386;2023-04-07T06:23:35;97039.16;;;9.57;49.66
8061;BME280;4073;42.626;25.386;2023-04-07T06:26:00;97048.78;;;9.53;51.29
8061;BME280;4073;42.626;25.386;2023-04-07T06:28:26;97048.78;;;9.43;49.61
8061;BME280;4073;42.626;25.386;2023-04-07T06:30:51;97049.56;;;9.23;48.75
8061;BME280;4073;42.626;25.386;2023-04-07T06:33:17;97052.47;;;9.17;49.48
8061;BME280;4073;42.626;25.386;2023-04-07T06:35:42;97058.34;;;9.09;49.38
8061;BME280;4073;42.626;25.386;2023-04-07T06:38:08;97055.69;;;9.09;51.48
8061;BME280;4073;42.626;25.386;2023-04-07T06:40:35;97058.88;;;9.01;52.44
8061;BME280;4073;42.626;25.386;2023-04-07T06:43:01;97062.31;;;9.01;52.72
8061;BME280;4073;42.626;25.386;2023-04-07T06:45:28;97058.88;;;9.06;53.42
8061;BME280;4073;42.626;25.386;2023-04-07T06:47:53;97064.47;;;9.04;53.13
8061;BME280;4073;42.626;25.386;2023-04-07T06:50:19;97067.13;;;8.99;53.96
8061;BME280;4073;42.626;25.386;2023-04-07T06:52:46;97066.34;;;9.14;54.76
8061;BME280;4073;42.626;25.386;2023-04-07T06:55:11;97067.44;;;9.28;54.16
8061;BME280;4073;42.626;25.386;2023-04-07T06:57:37;97073.84;;;9.42;53.65
8061;BME280;4073;42.626;25.386;2023-04-07T07:00:03;97075.19;;;9.54;53.81
8061;BME280;4073;42.626;25.386;2023-04-07T07:02:28;97081.31;;;9.60;53.49
8061;BME280;4073;42.626;25.386;2023-04-07T07:04:54;97081.84;;;9.67;53.87
8061;BME280;4073;42.626;25.386;2023-04-07T07:07:19;97084.53;;;9.67;52.61
8061;BME280;4073;42.626;25.386;2023-04-07T07:09:45;97081.84;;;9.57;52.88
8061;BME280;4073;42.626;25.386;2023-04-07T07:12:10;97084.25;;;9.58;53.42
8061;BME280;4073;42.626;25.386;2023-04-07T07:14:36;97083.75;;;9.56;54.23
8061;BME280;4073;42.626;25.386;2023-04-07T07:17:01;97090.41;;;9.69;54.04
8061;BME280;4073;42.626;25.386;2023-04-07T07:19:27;97094.41;;;9.81;53.32
8061;BME280;4073;42.626;25.386;2023-04-07T07:21:52;97103.22;;;9.82;53.30
8061;BME280;4073;42.626;25.386;2023-04-07T07:24:17;97097.59;;;9.88;53.60
8061;BME280;4073;42.626;25.386;2023-04-07T07:26:43;97098.91;;;10.01;52.86
8061;BME280;4073;42.626;25.386;2023-04-07T07:29:10;97102.13;;;10.08;53.31
8061;BME280;4073;42.626;25.386;2023-04-07T07:31:35;97106.38;;;10.19;53.22
8061;BME280;4073;42.626;25.386;2023-04-07T07:34:00;97106.38;;;10.34;51.13
8061;BME280;4073;42.626;25.386;2023-04-07T07:36:26;97110.63;;;10.35;49.99
8061;BME280;4073;42.626;25.386;2023-04-07T07:38:51;97107.41;;;10.48;50.16
8061;BME280;4073;42.626;25.386;2023-04-07T07:41:17;97098.50;;;10.73;50.37
8061;BME280;4073;42.626;25.386;2023-04-07T07:43:42;97102.78;;;10.69;49.61
8061;BME280;4073;42.626;25.386;2023-04-07T07:46:08;97100.13;;;10.64;50.13
8061;BME280;4073;42.626;25.386;2023-04-07T07:48:33;97091.56;;;10.62;50.31
8061;BME280;4073;42.626;25.386;2023-04-07T07:50:59;97104.53;;;10.93;50.32
8061;BME280;4073;42.626;25.386;2023-04-07T07:53:24;97101.91;;;11.37;49.23
8061;BME280;4073;42.626;25.386;2023-04-07T07:55:50;97087.63;;;11.85;48.45
8061;BME280;4073;42.626;25.386;2023-04-07T07:58:15;97095.31;;;12.43;46.49
8061;BME280;4073;42.626;25.386;2023-04-07T08:00:41;97095.09;;;12.63;45.29
8061;BME280;4073;42.626;25.386;2023-04-07T08:03:06;97088.66;;;13.12;44.95
8061;BME280;4073;42.626;25.386;2023-04-07T08:05:32;97084.47;;;13.56;43.34
8061;BME280;4073;42.626;25.386;2023-04-07T08:07:57;97097.72;;;13.85;42.10
8061;BME280;4073;42.626;25.386;2023-04-07T08:10:22;97109.81;;;14.01;41.14
8061;BME280;4073;42.626;25.386;2023-04-07T08:12:49;97090.38;;;13.90;40.52
8061;BME280;4073;42.626;25.386;2023-04-07T08:15:15;97098.13;;;13.78;41.72
8061;BME280;4073;42.626;25.386;2023-04-07T08:17:41;97102.34;;;13.98;40.43
8061;BME280;4073;42.626;25.386;2023-04-07T08:20:06;97104.75;;;14.13;39.74
8061;BME280;4073;42.626;25.386;2023-04-07T08:22:32;97101.72;;;13.87;40.13
8061;BME280;4073;42.626;25.386;2023-04-07T08:24:58;97090.13;;;13.55;41.16
8061;BME280;4073;42.626;25.386;2023-04-07T08:27:24;97098.94;;;13.23;42.71
8061;BME280;4073;42.626;25.386;2023-04-07T08:30:00;97099.03;;;12.71;43.59
8061;BME280;4073;42.626;25.386;2023-04-07T08:32:36;97103.25;;;12.53;45.28
8061;BME280;4073;42.626;25.386;2023-04-07T08:35:01;97096.44;;;12.66;47.68
8061;BME280;4073;42.626;25.386;2023-04-07T08:37:27;97091.19;;;12.98;44.44
8061;BME280;4073;42.626;25.386;2023-04-07T08:39:52;97083.84;;;13.27;43.91
8061;BME280;4073;42.626;25.386;2023-04-07T08:42:19;97054.97;;;13.19;43.37
8061;BME280;4073;42.626;25.386;2023-04-07T08:44:47;97080.53;;;13.67;42.95
8061;BME280;4073;42.626;25.386;2023-04-07T08:47:15;97085.06;;;14.17;41.49
8061;BME280;4073;42.626;25.386;2023-04-07T08:49:43;97086.44;;;14.60;40.59
8061;BME280;4073;42.626;25.386;2023-04-07T08:52:13;97080.25;;;15.00;40.59
8061;BME280;4073;42.626;25.386;2023-04-07T08:54:40;97086.09;;;15.02;39.06
8061;BME280;4073;42.626;25.386;2023-04-07T08:57:07;97091.41;;;14.67;39.32
8061;BME280;4073;42.626;25.386;2023-04-07T08:59:33;97089.31;;;14.64;39.78
8061;BME280;4073;42.626;25.386;2023-04-07T09:01:59;97089.13;;;14.33;39.84
8061;BME280;4073;42.626;25.386;2023-04-07T09:04:25;97074.69;;;13.47;40.09
8061;BME280;4073;42.626;25.386;2023-04-07T09:06:51;97071.94;;;13.15;42.00
8061;BME280;4073;42.626;25.386;2023-04-07T09:09:17;97079.00;;;12.87;43.55
8061;BME280;4073;42.626;25.386;2023-04-07T09:11:42;97087.31;;;13.28;42.69
8061;BME280;4073;42.626;25.386;2023-04-07T09:14:08;97082.72;;;13.65;41.59
8061;BME280;4073;42.626;25.386;2023-04-07T09:16:33;97083.38;;;13.57;41.24
8061;BME280;4073;42.626;25.386;2023-04-07T09:18:59;97090.22;;;13.50;41.51
8061;BME280;4073;42.626;25.386;2023-04-07T09:21:25;97087.03;;;13.29;41.76
8061;BME280;4073;42.626;25.386;2023-04-07T09:23:51;97089.72;;;13.11;42.83
8061;BME280;4073;42.626;25.386;2023-04-07T09:28:47;97074.34;;;13.85;41.61
8061;BME280;4073;42.626;25.386;2023-04-07T09:31:13;97074.31;;;14.17;40.11
8061;BME280;4073;42.626;25.386;2023-04-07T09:33:39;97088.44;;;14.09;39.15
8061;BME280;4073;42.626;25.386;2023-04-07T09:36:05;97080.22;;;12.99;41.01
8061;BME280;4073;42.626;25.386;2023-04-07T09:38:35;97085.38;;;12.91;41.47
8061;BME280;4073;42.626;25.386;2023-04-07T09:41:15;97071.97;;;12.91;42.45
8061;BME280;4073;42.626;25.386;2023-04-07T09:43:43;97061.44;;;12.76;42.14
8061;BME280;4073;42.626;25.386;2023-04-07T09:46:17;97075.59;;;12.81;42.54
8061;BME280;4073;42.626;25.386;2023-04-07T09:48:44;97064.41;;;13.35;41.41
8061;BME280;4073;42.626;25.386;2023-04-07T09:51:14;97067.34;;;14.16;39.66
8061;BME280;4073;42.626;25.386;2023-04-07T09:53:42;97073.19;;;14.64;38.09
8061;BME280;4073;42.626;25.386;2023-04-07T09:56:09;97077.19;;;14.66;38.06
8061;BME280;4073;42.626;25.386;2023-04-07T09:58:37;97075.78;;;14.42;37.95
8061;BME280;4073;42.626;25.386;2023-04-07T10:01:05;97086.06;;;14.08;38.46
8061;BME280;4073;42.626;25.386;2023-04-07T10:03:31;97082.94;;;14.01;39.10
8061;BME280;4073;42.626;25.386;2023-04-07T10:05:59;97072.34;;;13.59;39.50
8061;BME280;4073;42.626;25.386;2023-04-07T10:08:25;97071.50;;;13.26;40.35
8061;BME280;4073;42.626;25.386;2023-04-07T10:10:51;97077.41;;;13.28;40.51
8061;BME280;4073;42.626;25.386;2023-04-07T10:13:18;97061.84;;;13.07;40.43
8061;BME280;4073;42.626;25.386;2023-04-07T10:15:44;97066.84;;;12.94;40.12
8061;BME280;4073;42.626;25.386;2023-04-07T10:18:11;97064.75;;;12.68;40.86
8061;BME280;4073;42.626;25.386;2023-04-07T10:20:39;97067.38;;;12.73;41.68
8061;BME280;4073;42.626;25.386;2023-04-07T10:23:14;97065.56;;;13.29;41.77
8061;BME280;4073;42.626;25.386;2023-04-07T10:25:43;97064.00;;;13.92;39.67
8061;BME280;4073;42.626;25.386;2023-04-07T10:28:11;97081.88;;;14.15;38.73
8061;BME280;4073;42.626;25.386;2023-04-07T10:30:38;97061.72;;;14.58;38.08
8061;BME280;4073;42.626;25.386;2023-04-07T10:33:04;97055.72;;;14.88;37.30
8061;BME280;4073;42.626;25.386;2023-04-07T10:36:04;97060.09;;;15.47;35.45
8061;BME280;4073;42.626;25.386;2023-04-07T10:38:30;97069.69;;;15.39;35.88
8061;BME280;4073;42.626;25.386;2023-04-07T10:40:57;97064.47;;;14.94;35.80
8061;BME280;4073;42.626;25.386;2023-04-07T10:43:37;97072.09;;;14.38;37.41
8061;BME280;4073;42.626;25.386;2023-04-07T10:46:06;97072.06;;;14.24;37.55
8061;BME280;4073;42.626;25.386;2023-04-07T10:48:31;97079.00;;;13.80;38.16
8061;BME280;4073;42.626;25.386;2023-04-07T10:53:29;97067.66;;;13.14;40.47
8061;BME280;4073;42.626;25.386;2023-04-07T10:55:55;97079.44;;;12.94;40.46
8061;BME280;4073;42.626;25.386;2023-04-07T11:03:22;97086.03;;;14.53;38.00
8061;BME280;4073;42.626;25.386;2023-04-07T11:05:47;97071.09;;;14.47;37.38
8061;BME280;4073;42.626;25.386;2023-04-07T11:08:13;97081.41;;;14.27;38.06
8061;BME280;4073;42.626;25.386;2023-04-07T11:10:38;97080.69;;;14.08;38.84
8061;BME280;4073;42.626;25.386;2023-04-07T11:13:07;97080.16;;;14.06;39.68
8061;BME280;4073;42.626;25.386;2023-04-07T11:15:36;97081.03;;;13.88;39.07
8061;BME280;4073;42.626;25.386;2023-04-07T11:18:09;97070.16;;;13.29;39.78
8061;BME280;4073;42.626;25.386;2023-04-07T11:20:51;97070.72;;;13.26;40.82
8061;BME280;4073;42.626;25.386;2023-04-07T11:23:19;97059.47;;;13.42;40.40
8061;BME280;4073;42.626;25.386;2023-04-07T11:25:47;97073.41;;;14.08;39.78
8061;BME280;4073;42.626;25.386;2023-04-07T11:28:13;97066.41;;;14.53;37.63
8061;BME280;4073;42.626;25.386;2023-04-07T11:30:45;97062.81;;;14.57;37.52
8061;BME280;4073;42.626;25.386;2023-04-07T11:33:25;97066.31;;;14.85;37.23
8061;BME280;4073;42.626;25.386;2023-04-07T11:35:56;97070.19;;;15.28;36.10
8061;BME280;4073;42.626;25.386;2023-04-07T11:38:29;97063.66;;;15.56;35.76
8061;BME280;4073;42.626;25.386;2023-04-07T11:41:14;97061.38;;;15.49;36.18
8061;BME280;4073;42.626;25.386;2023-04-07T11:43:40;97060.06;;;15.11;37.08
8061;BME280;4073;42.626;25.386;2023-04-07T11:46:09;97054.72;;;15.33;36.04
8061;BME280;4073;42.626;25.386;2023-04-07T11:48:36;97058.13;;;15.25;37.55
8061;BME280;4073;42.626;25.386;2023-04-07T11:51:03;97056.84;;;15.23;37.69
8061;BME280;4073;42.626;25.386;2023-04-07T11:53:32;97066.41;;;15.29;37.48
8061;BME280;4073;42.626;25.386;2023-04-07T11:56:15;97062.72;;;15.38;36.37
8061;BME280;4073;42.626;25.386;2023-04-07T11:58:48;97059.44;;;15.28;35.97
8061;BME280;4073;42.626;25.386;2023-04-07T12:01:14;97056.16;;;14.82;37.61
8061;BME280;4073;42.626;25.386;2023-04-07T12:04:00;97057.59;;;15.01;36.55
8061;BME280;4073;42.626;25.386;2023-04-07T12:06:33;97051.09;;;15.16;37.30
8061;BME280;4073;42.626;25.386;2023-04-07T12:09:02;97048.19;;;15.26;36.46
8061;BME280;4073;42.626;25.386;2023-04-07T12:11:28;97053.47;;;15.17;37.00
8061;BME280;4073;42.626;25.386;2023-04-07T12:13:54;97056.63;;;14.84;36.85
8061;BME280;4073;42.626;25.386;2023-04-07T12:16:20;97067.56;;;15.01;37.17
8061;BME280;4073;42.626;25.386;2023-04-07T12:18:47;97053.84;;;14.75;37.03
8061;BME280;4073;42.626;25.386;2023-04-07T12:21:12;97054.53;;;14.54;37.66
8061;BME280;4073;42.626;25.386;2023-04-07T12:23:38;97071.00;;;14.39;38.24
8061;BME280;4073;42.626;25.386;2023-04-07T12:26:03;97063.63;;;14.31;38.92
8061;BME280;4073;42.626;25.386;2023-04-07T12:28:29;97068.06;;;14.22;39.30
8061;BME280;4073;42.626;25.386;2023-04-07T12:30:54;97057.47;;;14.12;38.98
8061;BME280;4073;42.626;25.386;2023-04-07T12:33:20;97061.94;;;14.35;39.53
8061;BME280;4073;42.626;25.386;2023-04-07T12:35:46;97065.59;;;14.39;38.01
8061;BME280;4073;42.626;25.386;2023-04-07T12:38:12;97062.50;;;14.32;38.38
8061;BME280;4073;42.626;25.386;2023-04-07T12:40:37;97061.00;;;14.26;38.54
8061;BME280;4073;42.626;25.386;2023-04-07T12:43:04;97055.16;;;14.24;38.64
8061;BME280;4073;42.626;25.386;2023-04-07T12:45:30;97060.22;;;14.25;38.37
8061;BME280;4073;42.626;25.386;2023-04-07T12:47:56;97058.91;;;14.23;39.86
8061;BME280;4073;42.626;25.386;2023-04-07T12:50:22;97061.75;;;14.13;40.80
8061;BME280;4073;42.626;25.386;2023-04-07T12:52:49;97054.84;;;13.93;43.18
8061;BME280;4073;42.626;25.386;2023-04-07T12:55:15;97054.72;;;13.85;42.12
8061;BME280;4073;42.626;25.386;2023-04-07T12:57:40;97058.84;;;13.64;42.92
8061;BME280;4073;42.626;25.386;2023-04-07T13:00:07;97056.09;;;13.50;43.64
8061;BME280;4073;42.626;25.386;2023-04-07T13:02:32;97063.41;;;13.63;44.14
8061;BME280;4073;42.626;25.386;2023-04-07T13:04:58;97062.94;;;13.43;43.86
8061;BME280;4073;42.626;25.386;2023-04-07T13:07:24;97069.72;;;13.22;43.86
8061;BME280;4073;42.626;25.386;2023-04-07T13:09:49;97048.97;;;13.09;43.90
8061;BME280;4073;42.626;25.386;2023-04-07T13:12:15;97057.16;;;12.98;44.92
8061;BME280;4073;42.626;25.386;2023-04-07T13:14:41;97052.00;;;13.02;44.38
8061;BME280;4073;42.626;25.386;2023-04-07T13:17:07;97053.28;;;12.86;44.71
8061;BME280;4073;42.626;25.386;2023-04-07T13:19:33;97045.31;;;12.99;44.97
8061;BME280;4073;42.626;25.386;2023-04-07T13:21:59;97051.94;;;13.26;43.17
8061;BME280;4073;42.626;25.386;2023-04-07T13:24:25;97054.38;;;13.41;44.48
8061;BME280;4073;42.626;25.386;2023-04-07T13:26:51;97063.50;;;13.58;43.55
8061;BME280;4073;42.626;25.386;2023-04-07T13:29:17;97057.34;;;13.39;43.40
8061;BME280;4073;42.626;25.386;2023-04-07T13:31:45;97061.19;;;13.15;44.35